createdAt,value
2018-07-12T00:01:24.168Z,86.70
2018-07-12T00:03:51.498Z,87.30
2018-07-12T00:06:18.820Z,86.60
2018-07-12T00:08:46.123Z,86.60
2018-07-12T00:11:13.456Z,86.50
2018-07-12T00:13:40.769Z,86.80
2018-07-12T00:16:08.076Z,86.70
2018-07-12T00:18:35.434Z,87.10
2018-07-12T00:21:03.065Z,86.60
2018-07-12T00:23:30.363Z,86.70
2018-07-12T00:25:57.673Z,86.90
2018-07-12T00:28:25.074Z,87.10
2018-07-12T00:30:52.372Z,87.70
2018-07-12T00:33:19.676Z,87.60
2018-07-12T00:35:47.009Z,87.10
2018-07-12T00:38:14.318Z,86.20
2018-07-12T00:40:41.656Z,86.20
2018-07-12T00:43:08.968Z,86.60
2018-07-12T00:45:36.270Z,86.80
2018-07-12T00:48:03.601Z,87.00
2018-07-12T00:50:30.922Z,87.00
2018-07-12T00:52:58.234Z,86.70
2018-07-12T00:55:25.611Z,86.90
2018-07-12T00:57:52.946Z,86.90
2018-07-12T01:00:20.268Z,87.30
2018-07-12T01:02:47.600Z,87.00
2018-07-12T01:05:14.915Z,87.10
2018-07-12T01:07:42.241Z,86.80
2018-07-12T01:10:09.560Z,86.80
2018-07-12T01:12:37.060Z,86.90
2018-07-12T01:15:04.385Z,86.90
2018-07-12T01:17:31.736Z,87.10
2018-07-12T01:19:59.064Z,86.70
2018-07-12T01:22:26.365Z,87.00
2018-07-12T01:24:53.709Z,87.10
2018-07-12T01:27:21.028Z,87.10
2018-07-12T01:29:48.488Z,87.10
2018-07-12T01:34:43.376Z,87.50
2018-07-12T01:37:10.679Z,86.90
2018-07-12T01:39:37.993Z,86.70
2018-07-12T01:42:05.315Z,86.90
2018-07-12T01:44:32.614Z,86.60
2018-07-12T01:46:59.947Z,86.70
2018-07-12T01:51:54.851Z,86.60
2018-07-12T01:54:22.159Z,86.90
2018-07-12T01:56:49.496Z,87.00
2018-07-12T01:59:16.802Z,86.90
2018-07-12T02:01:44.139Z,86.60
2018-07-12T02:04:11.440Z,86.60
2018-07-12T02:06:38.768Z,86.80
2018-07-12T02:09:06.567Z,86.90
2018-07-12T02:11:33.924Z,86.90
2018-07-12T02:14:01.236Z,87.30
2018-07-12T02:16:28.823Z,87.50
2018-07-12T02:18:56.125Z,87.90
2018-07-12T02:21:23.434Z,87.40
2018-07-12T02:23:50.760Z,87.30
2018-07-12T02:26:18.092Z,87.50
2018-07-12T02:28:45.417Z,87.50
2018-07-12T02:31:13.089Z,87.60
2018-07-12T02:33:40.408Z,87.80
2018-07-12T02:36:07.713Z,88.20
2018-07-12T02:38:35.055Z,87.80
2018-07-12T02:41:02.352Z,87.80
2018-07-12T02:43:29.683Z,87.50
2018-07-12T02:45:57.002Z,87.60
2018-07-12T02:48:24.330Z,87.40
2018-07-12T02:50:51.636Z,87.30
2018-07-12T02:53:18.969Z,87.30
2018-07-12T02:55:46.280Z,87.20
2018-07-12T02:58:13.608Z,86.70
2018-07-12T03:00:40.916Z,87.10
2018-07-12T03:03:08.243Z,86.80
2018-07-12T03:05:35.562Z,86.80
2018-07-12T03:08:02.876Z,86.40
2018-07-12T03:10:30.233Z,86.60
2018-07-12T03:12:57.560Z,87.00
2018-07-12T03:15:24.884Z,86.10
2018-07-12T03:17:52.261Z,86.50
2018-07-12T03:20:19.608Z,86.30
2018-07-12T03:22:46.927Z,86.40
2018-07-12T03:25:14.258Z,86.50
2018-07-12T03:27:41.598Z,86.10
2018-07-12T03:30:08.919Z,85.90
2018-07-12T03:32:36.255Z,85.70
2018-07-12T03:35:03.585Z,85.80
2018-07-12T03:37:30.953Z,85.60
2018-07-12T03:39:58.285Z,85.80
2018-07-12T03:42:25.589Z,86.60
2018-07-12T03:47:20.564Z,85.70
2018-07-12T03:49:47.868Z,85.90
2018-07-12T03:52:15.196Z,85.90
2018-07-12T03:54:42.518Z,85.90
2018-07-12T03:57:09.852Z,86.10
2018-07-12T03:59:37.171Z,86.10
2018-07-12T04:02:04.653Z,86.30
2018-07-12T04:04:32.032Z,86.20
2018-07-12T04:06:59.373Z,86.20
2018-07-12T04:09:26.705Z,86.10
2018-07-12T04:11:54.013Z,86.00
2018-07-12T04:14:21.341Z,85.70
2018-07-12T04:16:48.705Z,85.80
2018-07-12T04:19:16.049Z,85.80
2018-07-12T04:21:43.357Z,85.70
2018-07-12T04:24:10.733Z,85.80
2018-07-12T04:26:38.137Z,85.80
2018-07-12T04:29:05.460Z,85.70
2018-07-12T04:31:32.874Z,85.70
2018-07-12T04:34:00.490Z,85.70
2018-07-12T04:36:27.809Z,85.50
2018-07-12T04:38:55.129Z,85.50
2018-07-12T04:41:22.509Z,85.70
2018-07-12T04:43:49.895Z,85.20
2018-07-12T04:46:17.285Z,85.10
2018-07-12T04:48:44.598Z,85.00
2018-07-12T04:51:11.961Z,84.40
2018-07-12T04:53:39.254Z,84.60
2018-07-12T04:56:06.586Z,84.70
2018-07-12T04:58:33.930Z,84.80
2018-07-12T05:01:01.245Z,85.60
2018-07-12T05:03:28.624Z,85.50
2018-07-12T05:05:55.950Z,85.60
2018-07-12T05:08:23.260Z,85.70
2018-07-12T05:10:50.606Z,85.90
2018-07-12T05:13:17.913Z,86.00
2018-07-12T05:15:45.234Z,85.60
2018-07-12T05:18:12.540Z,85.50
2018-07-12T05:20:39.878Z,85.20
2018-07-12T05:23:07.208Z,84.90
2018-07-12T05:25:34.528Z,85.00
2018-07-12T05:28:01.858Z,84.70
2018-07-12T05:30:29.176Z,83.70
2018-07-12T05:32:56.515Z,82.10
2018-07-12T05:35:23.835Z,81.60
2018-07-12T05:40:21.127Z,78.20
2018-07-12T05:42:49.532Z,77.30
2018-07-12T05:45:17.964Z,77.00
2018-07-12T05:47:46.344Z,77.90
2018-07-12T05:50:14.754Z,78.80
2018-07-12T05:52:43.168Z,78.70
2018-07-12T05:55:11.584Z,78.30
2018-07-12T05:57:40.071Z,77.80
2018-07-12T06:00:08.538Z,76.60
2018-07-12T06:02:36.996Z,74.20
2018-07-12T06:05:05.420Z,72.60
2018-07-12T06:07:33.860Z,73.60
2018-07-12T06:10:02.308Z,75.10
2018-07-12T06:12:30.753Z,74.70
2018-07-12T06:14:59.168Z,73.90
2018-07-12T06:17:27.612Z,74.20
2018-07-12T06:19:56.021Z,74.70
2018-07-12T06:22:24.431Z,75.30
2018-07-12T06:24:52.887Z,74.60
2018-07-12T06:27:21.332Z,75.30
2018-07-12T06:29:49.811Z,75.80
2018-07-12T06:32:18.244Z,77.50
2018-07-12T06:34:46.654Z,77.90
2018-07-12T06:37:15.099Z,78.40
2018-07-12T06:39:43.483Z,78.00
2018-07-12T06:42:11.909Z,77.80
2018-07-12T06:44:40.328Z,76.90
2018-07-12T06:47:08.723Z,76.30
2018-07-12T06:49:37.212Z,75.90
2018-07-12T06:52:05.592Z,75.60
2018-07-12T06:54:34.013Z,72.80
2018-07-12T06:57:02.442Z,70.70
2018-07-12T06:59:30.831Z,66.00
2018-07-12T07:01:59.253Z,63.20
2018-07-12T07:04:27.672Z,62.80
2018-07-12T07:06:56.050Z,63.60
2018-07-12T07:09:24.442Z,63.70
2018-07-12T07:11:53.148Z,61.90
2018-07-12T07:14:21.596Z,59.10
2018-07-12T07:16:50.018Z,55.50
2018-07-12T07:19:18.418Z,53.50
2018-07-12T07:21:46.824Z,51.00
2018-07-12T07:24:15.297Z,51.00
2018-07-12T07:26:43.696Z,51.60
2018-07-12T07:29:12.111Z,51.00
2018-07-12T07:31:40.761Z,49.00
2018-07-12T07:34:09.161Z,48.40
2018-07-12T07:36:37.598Z,46.50
2018-07-12T07:39:07.752Z,48.20
2018-07-12T07:41:36.165Z,51.00
2018-07-12T07:44:04.686Z,53.20
2018-07-12T07:46:33.118Z,56.50
2018-07-12T07:49:01.558Z,59.50
2018-07-12T07:51:29.959Z,59.80
2018-07-12T07:53:58.373Z,59.60
2018-07-12T07:56:26.772Z,60.00
2018-07-12T07:58:55.213Z,59.80
2018-07-12T08:01:23.609Z,59.90
2018-07-12T08:03:52.040Z,59.30
2018-07-12T08:06:20.450Z,59.20
2018-07-12T08:08:48.869Z,58.50
2018-07-12T08:11:17.310Z,57.70
2018-07-12T08:13:45.802Z,57.10
2018-07-12T08:16:14.338Z,57.50
2018-07-12T08:18:43.080Z,57.30
2018-07-12T08:21:12.064Z,57.10
2018-07-12T08:23:40.578Z,56.00
2018-07-12T08:26:09.123Z,55.60
2018-07-12T08:28:37.544Z,55.60
2018-07-12T08:31:06.032Z,56.80
2018-07-12T08:33:34.466Z,57.40
2018-07-12T08:36:02.864Z,58.20
2018-07-12T08:38:31.307Z,58.30
2018-07-12T08:40:59.712Z,58.70
2018-07-12T08:43:28.202Z,59.70
2018-07-12T08:45:56.731Z,59.80
2018-07-12T08:48:25.182Z,59.20
2018-07-12T08:50:54.401Z,59.00
2018-07-12T08:53:22.941Z,58.80
2018-07-12T08:55:51.377Z,57.80
2018-07-12T08:58:19.808Z,56.70
2018-07-12T09:00:48.252Z,54.10
2018-07-12T09:03:16.694Z,52.90
2018-07-12T09:05:45.140Z,52.90
2018-07-12T09:08:13.570Z,51.50
2018-07-12T09:10:41.965Z,51.60
2018-07-12T09:13:10.420Z,53.20
2018-07-12T09:15:38.897Z,54.20
2018-07-12T09:18:07.335Z,54.10
2018-07-12T09:20:35.745Z,54.20
2018-07-12T09:23:04.176Z,54.60
2018-07-12T09:25:32.629Z,55.00
2018-07-12T09:28:01.012Z,55.20
2018-07-12T09:30:29.470Z,55.80
2018-07-12T09:32:57.927Z,56.20
2018-07-12T09:35:26.433Z,56.30
2018-07-12T09:37:54.928Z,56.30
2018-07-12T09:40:23.388Z,55.40
2018-07-12T09:42:51.843Z,53.60
2018-07-12T09:45:20.291Z,52.20
2018-07-12T09:47:48.775Z,52.20
2018-07-12T09:50:17.197Z,54.30
2018-07-12T09:52:45.597Z,55.30
2018-07-12T09:55:14.040Z,55.70
2018-07-12T09:57:53.835Z,54.60
2018-07-12T10:00:26.478Z,53.60
2018-07-12T10:03:00.264Z,51.90
2018-07-12T10:05:34.232Z,50.30
2018-07-12T10:08:08.028Z,48.50
2018-07-12T10:10:40.675Z,45.40
2018-07-12T10:13:14.425Z,44.50
2018-07-12T10:15:42.933Z,45.30
2018-07-12T10:18:16.778Z,47.50
2018-07-12T10:20:45.211Z,50.60
2018-07-12T10:23:13.616Z,53.60
2018-07-12T10:25:42.061Z,53.60
2018-07-12T10:28:10.520Z,53.60
2018-07-12T10:30:38.962Z,52.60
2018-07-12T10:33:07.439Z,52.40
2018-07-12T10:35:35.848Z,51.20
2018-07-12T10:38:04.295Z,49.60
2018-07-12T10:40:32.700Z,49.50
2018-07-12T10:43:01.552Z,49.80
2018-07-12T10:45:29.966Z,51.30
2018-07-12T10:47:58.364Z,51.60
2018-07-12T10:50:26.788Z,52.60
2018-07-12T10:52:55.325Z,53.30
2018-07-12T10:55:23.847Z,53.80
2018-07-12T10:57:52.357Z,53.80
2018-07-12T11:00:20.776Z,54.50
2018-07-12T11:02:49.220Z,54.00
2018-07-12T11:05:17.670Z,53.10
2018-07-12T11:07:46.103Z,52.30
2018-07-12T11:10:14.557Z,51.40
2018-07-12T11:12:43.017Z,51.20
2018-07-12T11:15:11.492Z,49.90
2018-07-12T11:17:39.940Z,50.00
2018-07-12T11:20:08.389Z,49.40
2018-07-12T11:22:36.789Z,48.80
2018-07-12T11:25:05.263Z,49.00
2018-07-12T11:27:33.661Z,49.10
2018-07-12T11:32:30.235Z,48.30
2018-07-12T11:34:58.625Z,47.10
2018-07-12T11:37:28.083Z,47.80
2018-07-12T11:39:56.509Z,49.20
2018-07-12T11:42:24.960Z,50.10
2018-07-12T11:44:53.380Z,50.80
2018-07-12T11:47:21.835Z,49.70
2018-07-12T11:49:50.317Z,49.60
2018-07-12T11:52:18.775Z,48.20
2018-07-12T11:54:47.454Z,48.60
2018-07-12T11:57:15.893Z,49.10
2018-07-12T11:59:44.322Z,48.50
2018-07-12T12:02:12.766Z,48.40
2018-07-12T12:04:41.216Z,47.80
2018-07-12T12:07:10.050Z,48.30
2018-07-12T12:09:38.573Z,48.70
2018-07-12T12:12:06.981Z,49.10
2018-07-12T12:14:35.434Z,48.30
2018-07-12T12:17:03.962Z,47.40
2018-07-12T12:19:32.470Z,47.80
2018-07-12T12:22:01.430Z,46.80
2018-07-12T12:24:29.918Z,47.00
2018-07-12T12:26:58.393Z,47.20
2018-07-12T12:29:26.816Z,48.30
2018-07-12T12:31:55.265Z,48.50
2018-07-12T12:34:23.744Z,49.00
2018-07-12T12:36:52.268Z,48.40
2018-07-12T12:39:20.673Z,48.30
2018-07-12T12:41:49.180Z,47.90
2018-07-12T12:44:17.596Z,48.10
2018-07-12T12:46:46.054Z,47.40
2018-07-12T12:49:14.464Z,46.60
2018-07-12T12:51:42.877Z,44.30
2018-07-12T12:54:11.296Z,44.30
2018-07-12T12:56:39.736Z,44.90
2018-07-12T12:59:08.185Z,45.00
2018-07-12T13:01:36.634Z,44.60
2018-07-12T13:04:05.044Z,44.80
2018-07-12T13:06:33.499Z,43.80
2018-07-12T13:09:01.954Z,44.40
2018-07-12T13:11:30.429Z,45.20
2018-07-12T13:13:58.865Z,45.40
2018-07-12T13:16:27.316Z,45.00
2018-07-12T13:18:55.788Z,46.20
2018-07-12T13:21:24.242Z,46.50
2018-07-12T13:23:52.680Z,46.10
2018-07-12T13:26:21.294Z,45.50
2018-07-12T13:28:49.760Z,46.00
2018-07-12T13:31:18.284Z,45.70
2018-07-12T13:33:46.784Z,45.60
2018-07-12T13:36:15.216Z,45.30
2018-07-12T13:38:43.609Z,45.70
2018-07-12T13:41:12.039Z,45.10
2018-07-12T13:43:40.450Z,45.40
2018-07-12T13:46:09.033Z,44.70
2018-07-12T13:48:37.493Z,45.10
2018-07-12T13:51:05.932Z,44.60
2018-07-12T13:53:34.365Z,44.70
2018-07-12T13:56:02.776Z,43.50
2018-07-12T13:58:31.257Z,44.00
2018-07-12T14:00:59.729Z,43.50
2018-07-12T14:03:28.245Z,42.60
2018-07-12T14:05:56.918Z,42.30
2018-07-12T14:08:25.331Z,42.30
2018-07-12T14:10:53.845Z,41.90
2018-07-12T14:13:22.273Z,42.00
2018-07-12T14:15:50.760Z,41.60
2018-07-12T14:18:19.169Z,41.80
2018-07-12T14:20:47.646Z,42.00
2018-07-12T14:23:16.057Z,42.10
2018-07-12T14:25:44.480Z,41.60
2018-07-12T14:28:12.915Z,41.10
2018-07-12T14:30:41.340Z,41.60
2018-07-12T14:33:09.749Z,41.60
2018-07-12T14:35:38.198Z,42.20
2018-07-12T14:38:06.644Z,43.30
2018-07-12T14:40:35.064Z,43.40
2018-07-12T14:43:03.534Z,43.80
2018-07-12T14:45:32.006Z,44.70
2018-07-12T14:48:00.490Z,43.80
2018-07-12T14:50:28.961Z,44.00
2018-07-12T14:52:57.386Z,44.30
2018-07-12T14:55:25.805Z,42.70
2018-07-12T14:57:54.228Z,42.00
2018-07-12T15:00:22.934Z,42.30
2018-07-12T15:02:51.359Z,41.40
2018-07-12T15:05:19.785Z,41.50
2018-07-12T15:07:48.293Z,41.60
2018-07-12T15:10:16.806Z,41.90
2018-07-12T15:12:45.280Z,42.20
2018-07-12T15:15:13.738Z,42.00
2018-07-12T15:17:42.176Z,42.00
2018-07-12T15:20:10.894Z,42.30
2018-07-12T15:22:39.347Z,42.70
2018-07-12T15:25:07.786Z,42.80
2018-07-12T15:27:36.293Z,42.80
2018-07-12T15:30:04.870Z,43.00
2018-07-12T15:32:33.342Z,42.50
2018-07-12T15:35:02.153Z,42.30
2018-07-12T15:37:30.638Z,42.30
2018-07-12T15:39:59.033Z,42.40
2018-07-12T15:42:27.493Z,42.40
2018-07-12T15:44:55.939Z,42.80
2018-07-12T15:47:24.409Z,41.70
2018-07-12T15:49:52.854Z,41.80
2018-07-12T15:52:21.311Z,42.60
2018-07-12T15:54:49.765Z,42.40
2018-07-12T15:57:18.264Z,42.60
2018-07-12T15:59:46.746Z,43.40
2018-07-12T16:02:15.274Z,43.30
2018-07-12T16:04:43.868Z,43.00
2018-07-12T16:07:12.401Z,43.90
2018-07-12T16:09:41.776Z,44.40
2018-07-12T16:12:10.257Z,44.10
2018-07-12T16:14:39.293Z,43.60
2018-07-12T16:17:08.373Z,43.50
2018-07-12T16:19:36.944Z,43.70
2018-07-12T16:22:05.568Z,44.00
2018-07-12T16:24:34.085Z,44.10
2018-07-12T16:27:02.626Z,43.80
2018-07-12T16:29:31.065Z,44.50
2018-07-12T16:31:59.482Z,44.60
2018-07-12T16:34:27.957Z,44.70
2018-07-12T16:36:56.436Z,44.40
2018-07-12T16:39:24.857Z,44.10
2018-07-12T16:41:53.323Z,43.60
2018-07-12T16:44:21.788Z,44.30
2018-07-12T16:46:50.243Z,45.00
2018-07-12T16:49:18.688Z,45.20
2018-07-12T16:51:47.166Z,45.30
2018-07-12T16:54:15.596Z,45.00
2018-07-12T16:56:44.058Z,45.30
2018-07-12T16:59:12.505Z,46.00
2018-07-12T17:01:40.936Z,45.30
2018-07-12T17:04:09.443Z,45.20
2018-07-12T17:06:37.878Z,45.30
2018-07-12T17:09:07.872Z,45.50
2018-07-12T17:11:36.301Z,45.80
2018-07-12T17:14:04.805Z,45.80
2018-07-12T17:16:33.203Z,45.50
2018-07-12T17:19:01.671Z,45.60
2018-07-12T17:21:30.071Z,45.30
2018-07-12T17:23:58.484Z,45.50
2018-07-12T17:26:27.055Z,44.40
2018-07-12T17:28:55.489Z,44.40
2018-07-12T17:31:23.934Z,44.30
2018-07-12T17:33:52.343Z,44.30
2018-07-12T17:36:20.791Z,44.10
2018-07-12T17:38:49.237Z,43.60
2018-07-12T17:41:17.717Z,43.90
2018-07-12T17:43:46.132Z,43.60
2018-07-12T17:46:14.612Z,43.50
2018-07-12T17:48:43.060Z,43.50
2018-07-12T17:51:11.516Z,43.60
2018-07-12T17:53:39.937Z,43.90
2018-07-12T17:56:08.472Z,42.90
2018-07-12T17:58:36.906Z,43.50
2018-07-12T18:01:05.488Z,43.40
2018-07-12T18:03:33.921Z,43.50
2018-07-12T18:06:02.353Z,44.00
2018-07-12T18:08:30.805Z,44.00
2018-07-12T18:10:59.245Z,43.90
2018-07-12T18:13:27.656Z,44.60
2018-07-12T18:15:56.085Z,44.80
2018-07-12T18:18:24.552Z,44.80
2018-07-12T18:20:52.973Z,45.30
2018-07-12T18:23:21.412Z,45.70
2018-07-12T18:25:49.860Z,46.20
2018-07-12T18:28:18.328Z,47.30
2018-07-12T18:30:46.992Z,48.00
2018-07-12T18:33:15.425Z,48.60
2018-07-12T18:35:43.832Z,49.00
2018-07-12T18:38:12.279Z,49.20
2018-07-12T18:40:40.721Z,49.20
2018-07-12T18:43:09.152Z,49.50
2018-07-12T18:48:05.744Z,50.10
2018-07-12T18:50:34.219Z,50.50
2018-07-12T18:53:02.705Z,50.80
2018-07-12T18:55:31.155Z,50.90
2018-07-12T18:57:59.636Z,50.90
2018-07-12T19:00:28.477Z,51.20
2018-07-12T19:02:57.226Z,51.50
2018-07-12T19:05:25.671Z,51.70
2018-07-12T19:07:54.148Z,51.90
2018-07-12T19:10:22.609Z,52.10
2018-07-12T19:12:51.036Z,52.30
2018-07-12T19:15:19.508Z,52.40
2018-07-12T19:17:47.864Z,52.40
2018-07-12T19:20:16.360Z,52.80
2018-07-12T19:22:44.777Z,52.60
2018-07-12T19:25:13.227Z,53.00
2018-07-12T19:27:41.668Z,53.10
2018-07-12T19:30:10.174Z,53.40
2018-07-12T19:32:38.829Z,53.90
2018-07-12T19:35:07.317Z,54.20
2018-07-12T19:37:35.761Z,54.50
2018-07-12T19:40:04.272Z,54.50
2018-07-12T19:42:32.725Z,54.60
2018-07-12T19:45:01.188Z,54.80
2018-07-12T19:47:29.608Z,55.20
2018-07-12T19:49:58.049Z,55.60
2018-07-12T19:52:26.541Z,55.70
2018-07-12T19:54:54.981Z,55.70
2018-07-12T19:57:23.446Z,55.80
2018-07-12T19:59:51.969Z,55.60
2018-07-12T20:02:20.435Z,55.60
2018-07-12T20:04:48.857Z,55.40
2018-07-12T20:07:17.552Z,55.40
2018-07-12T20:09:46.200Z,54.60
2018-07-12T20:12:14.629Z,54.20
2018-07-12T20:14:43.328Z,54.10
2018-07-12T20:17:11.743Z,54.00
2018-07-12T20:19:40.157Z,53.90
2018-07-12T20:22:08.635Z,53.90
2018-07-12T20:24:37.084Z,53.70
2018-07-12T20:27:05.805Z,53.70
2018-07-12T20:29:34.208Z,53.50
2018-07-12T20:32:02.657Z,53.40
2018-07-12T20:34:31.099Z,53.20
2018-07-12T20:36:59.505Z,53.10
2018-07-12T20:39:27.960Z,53.20
2018-07-12T20:41:56.367Z,53.20
2018-07-12T20:44:24.871Z,53.10
2018-07-12T20:46:53.277Z,53.10
2018-07-12T20:49:21.721Z,53.20
2018-07-12T20:51:50.136Z,52.90
2018-07-12T20:54:18.719Z,53.10
2018-07-12T20:56:47.122Z,53.30
2018-07-12T20:59:15.532Z,53.70
2018-07-12T21:01:43.957Z,53.60
2018-07-12T21:04:13.202Z,54.00
2018-07-12T21:06:41.737Z,54.30
2018-07-12T21:09:10.642Z,54.70
2018-07-12T21:11:39.166Z,54.90
2018-07-12T21:14:07.624Z,55.10
2018-07-12T21:16:36.690Z,55.40
2018-07-12T21:19:05.311Z,55.60
2018-07-12T21:21:33.817Z,55.90
2018-07-12T21:24:02.268Z,56.10
2018-07-12T21:26:30.745Z,56.50
2018-07-12T21:28:59.170Z,56.60
2018-07-12T21:31:27.607Z,56.60
2018-07-12T21:33:55.994Z,56.70
2018-07-12T21:36:24.480Z,57.00
2018-07-12T21:38:52.928Z,57.50
2018-07-12T21:41:21.476Z,57.40
2018-07-12T21:43:49.937Z,57.30
2018-07-12T21:46:18.447Z,57.60
2018-07-12T21:48:46.856Z,58.50
2018-07-12T21:51:15.321Z,58.10
2018-07-12T21:56:12.040Z,58.60
2018-07-12T21:58:40.456Z,58.70
2018-07-12T22:01:08.943Z,59.10
2018-07-12T22:03:37.420Z,59.30
2018-07-12T22:06:06.003Z,59.60
2018-07-12T22:08:34.447Z,59.50
2018-07-12T22:11:04.277Z,59.90
2018-07-12T22:13:33.840Z,59.90
2018-07-12T22:16:02.512Z,60.70
2018-07-12T22:18:30.992Z,60.80
2018-07-12T22:20:59.523Z,60.80
2018-07-12T22:23:27.973Z,60.90
2018-07-12T22:25:56.421Z,61.10
2018-07-12T22:28:24.945Z,61.50
2018-07-12T22:30:53.386Z,61.70
2018-07-12T22:33:21.827Z,62.10
2018-07-12T22:35:50.239Z,62.60
2018-07-12T22:38:18.689Z,62.80
2018-07-12T22:40:47.104Z,63.10
2018-07-12T22:43:15.568Z,63.80
2018-07-12T22:45:43.981Z,64.00
2018-07-12T22:48:12.516Z,64.50
2018-07-12T22:50:40.857Z,64.70
2018-07-12T22:53:09.284Z,64.80
2018-07-12T22:55:37.923Z,65.10
2018-07-12T22:58:06.333Z,65.40
2018-07-12T23:00:34.784Z,65.70
2018-07-12T23:03:03.269Z,65.60
2018-07-12T23:05:31.661Z,65.80
2018-07-12T23:08:00.117Z,66.50
2018-07-12T23:10:28.528Z,66.90
2018-07-12T23:12:56.942Z,67.30
2018-07-12T23:15:25.413Z,67.10
2018-07-12T23:17:53.917Z,67.00
2018-07-12T23:20:22.370Z,67.10
2018-07-12T23:22:50.771Z,67.30
2018-07-12T23:25:19.203Z,67.30
2018-07-12T23:27:47.629Z,67.60
2018-07-12T23:30:16.106Z,68.10
2018-07-12T23:32:44.526Z,68.10
2018-07-12T23:35:12.969Z,68.10
2018-07-12T23:37:41.399Z,68.40
2018-07-12T23:40:09.840Z,68.70
2018-07-12T23:42:38.289Z,68.80
2018-07-12T23:45:06.705Z,69.10
2018-07-12T23:47:35.125Z,69.60
2018-07-12T23:50:03.581Z,69.40
2018-07-12T23:52:32.023Z,69.20
2018-07-12T23:55:00.416Z,69.40
2018-07-12T23:57:28.913Z,69.50
2018-07-12T23:59:57.316Z,69.70
